New Buffalo, Pennsylvania
Current Conditions -  °F | °C
As of 6:56 PM on Friday 19 Dec 2014 (Local Time) from KCXY Reporting Station
Clear Clear  
Wind Chill: 28°   Ceiling: Unl
Heat Index: 34°   Visibility: 10mi
Dew Point: 21°   Wind: 7mph
Humidity: 59%   Direction: 300°WNW
Pressure: 30.18"   Gusts: NA
Location:  40.45°N, 76.97°W
Report Text: KCXY 192356Z 30006KT 10SM CLR 01/M06 A3018 RMK AO2 SLP224 T00111061 10050 20011 51014
Loading
Personal Weather Stations






























Interactive Weather Map New forecast layout! Learn more

10-Day Weather Forecast

Advertisements
Track Severe Weather on mobile